Terminal Aerodrome Forecast
Issued by NWS

Home | Current Version | Previous Version | Text Only | Print | Product List | Glossary On
Versions: 1 2 3 4 5 6 7 8 9 10 11 12 13 14
347
FTUS45 KVEF 020525
TAFBIH
TAF
KBIH 020525Z 0206/0306 32006KT P6SM FEW070
     FM021500 VRB05KT P6SM FEW250
     FM021900 17007KT P6SM FEW080 SCT250=

USA.gov is the U.S. government's official web portal to all federal, state and local government web resources and services.